sensor_id;sensor_type;location;lat;lon;timestamp;P1;P2;P0
54869;PMS5003;40756;-37.950;145.008;2022-10-16T00:01:51;0;0;
54869;PMS5003;40756;-37.950;145.008;2022-10-16T00:04:21;1;1;
54869;PMS5003;40756;-37.950;145.008;2022-10-16T00:06:50;3;2;
54869;PMS5003;40756;-37.950;145.008;2022-10-16T00:09:20;0;0;
54869;PMS5003;40756;-37.950;145.008;2022-10-16T00:11:49;1;1;
54869;PMS5003;40756;-37.950;145.008;2022-10-16T00:14:19;3;2;
54869;PMS5003;40756;-37.950;145.008;2022-10-16T00:16:49;0;0;
54869;PMS5003;40756;-37.950;145.008;2022-10-16T00:19:18;1;1;
54869;PMS5003;40756;-37.950;145.008;2022-10-16T00:21:48;2;1;
54869;PMS5003;40756;-37.950;145.008;2022-10-16T00:24:17;1;1;
54869;PMS5003;40756;-37.950;145.008;2022-10-16T00:26:48;1;1;
54869;PMS5003;40756;-37.950;145.008;2022-10-16T00:29:18;0;0;
54869;PMS5003;40756;-37.950;145.008;2022-10-16T00:31:48;2;2;
54869;PMS5003;40756;-37.950;145.008;2022-10-16T00:34:17;10;9;
54869;PMS5003;40756;-37.950;145.008;2022-10-16T00:36:47;1;1;
54869;PMS5003;40756;-37.950;145.008;2022-10-16T00:39:17;1;1;
54869;PMS5003;40756;-37.950;145.008;2022-10-16T00:41:46;1;1;
54869;PMS5003;40756;-37.950;145.008;2022-10-16T00:44:49;4;4;
54869;PMS5003;40756;-37.950;145.008;2022-10-16T00:47:21;1;1;
54869;PMS5003;40756;-37.950;145.008;2022-10-16T00:49:59;2;2;
54869;PMS5003;40756;-37.950;145.008;2022-10-16T00:52:34;2;2;
54869;PMS5003;40756;-37.950;145.008;2022-10-16T00:55:05;1;1;
54869;PMS5003;40756;-37.950;145.008;2022-10-16T00:57:36;4;3;
54869;PMS5003;40756;-37.950;145.008;2022-10-16T01:00:10;2;2;
54869;PMS5003;40756;-37.950;145.008;2022-10-16T01:02:42;1;1;
54869;PMS5003;40756;-37.950;145.008;2022-10-16T01:05:12;2;2;
54869;PMS5003;40756;-37.950;145.008;2022-10-16T01:07:43;3;3;
54869;PMS5003;40756;-37.950;145.008;2022-10-16T01:10:26;3;2;
54869;PMS5003;40756;-37.950;145.008;2022-10-16T01:13:01;1;1;
54869;PMS5003;40756;-37.950;145.008;2022-10-16T01:15:35;1;1;
54869;PMS5003;40756;-37.950;145.008;2022-10-16T01:18:11;4;3;
54869;PMS5003;40756;-37.950;145.008;2022-10-16T01:20:46;2;1;
54869;PMS5003;40756;-37.950;145.008;2022-10-16T01:23:29;3;3;
54869;PMS5003;40756;-37.950;145.008;2022-10-16T01:26:15;2;2;
54869;PMS5003;40756;-37.950;145.008;2022-10-16T01:29:00;2;1;
54869;PMS5003;40756;-37.950;145.008;2022-10-16T01:31:36;1;1;
54869;PMS5003;40756;-37.950;145.008;2022-10-16T01:34:13;1;1;
54869;PMS5003;40756;-37.950;145.008;2022-10-16T01:36:47;0;0;
54869;PMS5003;40756;-37.950;145.008;2022-10-16T01:39:22;2;2;
54869;PMS5003;40756;-37.950;145.008;2022-10-16T01:41:58;1;0;
54869;PMS5003;40756;-37.950;145.008;2022-10-16T01:44:34;1;1;
54869;PMS5003;40756;-37.950;145.008;2022-10-16T01:47:06;2;2;
54869;PMS5003;40756;-37.950;145.008;2022-10-16T01:49:38;2;1;
54869;PMS5003;40756;-37.950;145.008;2022-10-16T01:52:09;0;0;
54869;PMS5003;40756;-37.950;145.008;2022-10-16T01:54:43;1;0;
54869;PMS5003;40756;-37.950;145.008;2022-10-16T01:57:18;1;0;
54869;PMS5003;40756;-37.950;145.008;2022-10-16T01:59:50;0;0;
54869;PMS5003;40756;-37.950;145.008;2022-10-16T02:02:23;1;1;
54869;PMS5003;40756;-37.950;145.008;2022-10-16T02:04:58;0;0;
54869;PMS5003;40756;-37.950;145.008;2022-10-16T02:07:35;3;1;
54869;PMS5003;40756;-37.950;145.008;2022-10-16T02:10:05;1;1;
54869;PMS5003;40756;-37.950;145.008;2022-10-16T02:12:36;1;0;
54869;PMS5003;40756;-37.950;145.008;2022-10-16T02:15:09;0;0;
54869;PMS5003;40756;-37.950;145.008;2022-10-16T02:17:38;0;0;
54869;PMS5003;40756;-37.950;145.008;2022-10-16T02:20:08;0;0;
54869;PMS5003;40756;-37.950;145.008;2022-10-16T02:22:39;2;0;
54869;PMS5003;40756;-37.950;145.008;2022-10-16T02:25:12;1;1;
54869;PMS5003;40756;-37.950;145.008;2022-10-16T02:27:47;1;1;
54869;PMS5003;40756;-37.950;145.008;2022-10-16T02:30:24;2;1;
54869;PMS5003;40756;-37.950;145.008;2022-10-16T02:32:56;0;0;
54869;PMS5003;40756;-37.950;145.008;2022-10-16T02:35:28;0;0;
54869;PMS5003;40756;-37.950;145.008;2022-10-16T02:37:59;0;0;
54869;PMS5003;40756;-37.950;145.008;2022-10-16T02:40:31;1;0;
54869;PMS5003;40756;-37.950;145.008;2022-10-16T02:43:00;0;0;
54869;PMS5003;40756;-37.950;145.008;2022-10-16T02:45:32;0;0;
54869;PMS5003;40756;-37.950;145.008;2022-10-16T02:48:02;0;0;
54869;PMS5003;40756;-37.950;145.008;2022-10-16T02:50:31;0;0;
54869;PMS5003;40756;-37.950;145.008;2022-10-16T02:53:01;0;0;
54869;PMS5003;40756;-37.950;145.008;2022-10-16T02:55:30;1;1;
54869;PMS5003;40756;-37.950;145.008;2022-10-16T02:58:01;2;1;
54869;PMS5003;40756;-37.950;145.008;2022-10-16T03:00:30;1;0;
54869;PMS5003;40756;-37.950;145.008;2022-10-16T03:03:00;0;0;
54869;PMS5003;40756;-37.950;145.008;2022-10-16T03:05:29;2;1;
54869;PMS5003;40756;-37.950;145.008;2022-10-16T03:07:59;2;1;
54869;PMS5003;40756;-37.950;145.008;2022-10-16T03:10:28;0;0;
54869;PMS5003;40756;-37.950;145.008;2022-10-16T03:12:58;1;0;
54869;PMS5003;40756;-37.950;145.008;2022-10-16T03:15:27;0;0;
54869;PMS5003;40756;-37.950;145.008;2022-10-16T03:17:57;1;0;
54869;PMS5003;40756;-37.950;145.008;2022-10-16T03:20:27;0;0;
54869;PMS5003;40756;-37.950;145.008;2022-10-16T03:22:57;3;1;
54869;PMS5003;40756;-37.950;145.008;2022-10-16T03:25:26;1;1;
54869;PMS5003;40756;-37.950;145.008;2022-10-16T03:27:56;1;0;
54869;PMS5003;40756;-37.950;145.008;2022-10-16T03:30:25;0;0;
54869;PMS5003;40756;-37.950;145.008;2022-10-16T03:32:55;2;0;
54869;PMS5003;40756;-37.950;145.008;2022-10-16T03:35:24;0;0;
54869;PMS5003;40756;-37.950;145.008;2022-10-16T03:37:54;0;0;
54869;PMS5003;40756;-37.950;145.008;2022-10-16T03:40:23;1;0;
54869;PMS5003;40756;-37.950;145.008;2022-10-16T03:42:53;0;0;
54869;PMS5003;40756;-37.950;145.008;2022-10-16T03:45:22;2;2;
54869;PMS5003;40756;-37.950;145.008;2022-10-16T03:47:52;1;1;
54869;PMS5003;40756;-37.950;145.008;2022-10-16T03:50:21;1;1;
54869;PMS5003;40756;-37.950;145.008;2022-10-16T03:52:51;1;1;
54869;PMS5003;40756;-37.950;145.008;2022-10-16T03:55:20;1;0;
54869;PMS5003;40756;-37.950;145.008;2022-10-16T03:57:50;1;1;
54869;PMS5003;40756;-37.950;145.008;2022-10-16T04:00:20;0;0;
54869;PMS5003;40756;-37.950;145.008;2022-10-16T04:02:49;0;0;
54869;PMS5003;40756;-37.950;145.008;2022-10-16T04:05:19;0;0;
54869;PMS5003;40756;-37.950;145.008;2022-10-16T04:07:48;3;2;
54869;PMS5003;40756;-37.950;145.008;2022-10-16T04:10:18;1;1;
54869;PMS5003;40756;-37.950;145.008;2022-10-16T04:12:47;0;0;
54869;PMS5003;40756;-37.950;145.008;2022-10-16T04:15:17;0;0;
54869;PMS5003;40756;-37.950;145.008;2022-10-16T04:17:46;1;1;
54869;PMS5003;40756;-37.950;145.008;2022-10-16T04:20:16;0;0;
54869;PMS5003;40756;-37.950;145.008;2022-10-16T04:22:46;0;0;
54869;PMS5003;40756;-37.950;145.008;2022-10-16T04:25:15;2;1;
54869;PMS5003;40756;-37.950;145.008;2022-10-16T04:27:45;0;0;
54869;PMS5003;40756;-37.950;145.008;2022-10-16T04:30:14;1;1;
54869;PMS5003;40756;-37.950;145.008;2022-10-16T04:32:47;1;1;
54869;PMS5003;40756;-37.950;145.008;2022-10-16T04:35:17;1;0;
54869;PMS5003;40756;-37.950;145.008;2022-10-16T04:37:47;0;0;
54869;PMS5003;40756;-37.950;145.008;2022-10-16T04:40:17;0;0;
54869;PMS5003;40756;-37.950;145.008;2022-10-16T04:42:46;0;0;
54869;PMS5003;40756;-37.950;145.008;2022-10-16T04:45:16;1;1;
54869;PMS5003;40756;-37.950;145.008;2022-10-16T04:47:45;2;1;
54869;PMS5003;40756;-37.950;145.008;2022-10-16T04:50:15;0;0;
54869;PMS5003;40756;-37.950;145.008;2022-10-16T04:52:44;1;0;
54869;PMS5003;40756;-37.950;145.008;2022-10-16T04:55:14;1;0;
54869;PMS5003;40756;-37.950;145.008;2022-10-16T04:57:43;0;0;
54869;PMS5003;40756;-37.950;145.008;2022-10-16T05:00:13;1;0;
54869;PMS5003;40756;-37.950;145.008;2022-10-16T05:02:43;0;0;
54869;PMS5003;40756;-37.950;145.008;2022-10-16T05:05:13;0;0;
54869;PMS5003;40756;-37.950;145.008;2022-10-16T05:07:42;0;0;
54869;PMS5003;40756;-37.950;145.008;2022-10-16T05:10:12;0;0;
54869;PMS5003;40756;-37.950;145.008;2022-10-16T05:12:41;2;1;
54869;PMS5003;40756;-37.950;145.008;2022-10-16T05:15:11;2;1;
54869;PMS5003;40756;-37.950;145.008;2022-10-16T05:17:40;0;0;
54869;PMS5003;40756;-37.950;145.008;2022-10-16T05:20:10;2;1;
54869;PMS5003;40756;-37.950;145.008;2022-10-16T05:22:39;0;0;
54869;PMS5003;40756;-37.950;145.008;2022-10-16T05:25:09;1;1;
54869;PMS5003;40756;-37.950;145.008;2022-10-16T05:27:38;0;0;
54869;PMS5003;40756;-37.950;145.008;2022-10-16T05:30:08;2;0;
54869;PMS5003;40756;-37.950;145.008;2022-10-16T05:32:38;0;0;
54869;PMS5003;40756;-37.950;145.008;2022-10-16T05:35:08;0;0;
54869;PMS5003;40756;-37.950;145.008;2022-10-16T05:37:37;1;0;
54869;PMS5003;40756;-37.950;145.008;2022-10-16T05:40:07;1;1;
54869;PMS5003;40756;-37.950;145.008;2022-10-16T05:42:37;1;1;
54869;PMS5003;40756;-37.950;145.008;2022-10-16T05:45:07;1;1;
54869;PMS5003;40756;-37.950;145.008;2022-10-16T05:47:38;0;0;
54869;PMS5003;40756;-37.950;145.008;2022-10-16T05:50:07;0;0;
54869;PMS5003;40756;-37.950;145.008;2022-10-16T05:52:37;1;0;
54869;PMS5003;40756;-37.950;145.008;2022-10-16T05:55:06;1;1;
54869;PMS5003;40756;-37.950;145.008;2022-10-16T05:57:36;0;0;
54869;PMS5003;40756;-37.950;145.008;2022-10-16T06:00:06;1;1;
54869;PMS5003;40756;-37.950;145.008;2022-10-16T06:02:37;1;1;
54869;PMS5003;40756;-37.950;145.008;2022-10-16T06:05:08;0;0;
54869;PMS5003;40756;-37.950;145.008;2022-10-16T06:07:37;1;0;
54869;PMS5003;40756;-37.950;145.008;2022-10-16T06:10:07;2;1;
54869;PMS5003;40756;-37.950;145.008;2022-10-16T06:12:37;0;0;
54869;PMS5003;40756;-37.950;145.008;2022-10-16T06:15:07;1;0;
54869;PMS5003;40756;-37.950;145.008;2022-10-16T06:17:37;1;0;
54869;PMS5003;40756;-37.950;145.008;2022-10-16T06:20:07;2;0;
54869;PMS5003;40756;-37.950;145.008;2022-10-16T06:22:37;1;1;
54869;PMS5003;40756;-37.950;145.008;2022-10-16T06:25:07;0;0;
54869;PMS5003;40756;-37.950;145.008;2022-10-16T06:27:38;1;0;
54869;PMS5003;40756;-37.950;145.008;2022-10-16T06:30:08;0;0;
54869;PMS5003;40756;-37.950;145.008;2022-10-16T06:32:38;0;0;
54869;PMS5003;40756;-37.950;145.008;2022-10-16T06:35:08;1;0;
54869;PMS5003;40756;-37.950;145.008;2022-10-16T06:37:38;1;1;
54869;PMS5003;40756;-37.950;145.008;2022-10-16T06:40:07;2;2;
54869;PMS5003;40756;-37.950;145.008;2022-10-16T06:42:37;1;1;
54869;PMS5003;40756;-37.950;145.008;2022-10-16T06:45:07;0;0;
54869;PMS5003;40756;-37.950;145.008;2022-10-16T06:47:37;1;0;
54869;PMS5003;40756;-37.950;145.008;2022-10-16T06:50:07;0;0;
54869;PMS5003;40756;-37.950;145.008;2022-10-16T06:52:36;0;0;
54869;PMS5003;40756;-37.950;145.008;2022-10-16T06:55:06;1;0;
54869;PMS5003;40756;-37.950;145.008;2022-10-16T06:57:36;2;1;
54869;PMS5003;40756;-37.950;145.008;2022-10-16T07:00:06;2;1;
54869;PMS5003;40756;-37.950;145.008;2022-10-16T07:02:36;0;0;
54869;PMS5003;40756;-37.950;145.008;2022-10-16T07:05:06;1;1;
54869;PMS5003;40756;-37.950;145.008;2022-10-16T07:07:36;0;0;
54869;PMS5003;40756;-37.950;145.008;2022-10-16T07:10:06;0;0;
54869;PMS5003;40756;-37.950;145.008;2022-10-16T07:12:36;2;2;
54869;PMS5003;40756;-37.950;145.008;2022-10-16T07:15:06;0;0;
54869;PMS5003;40756;-37.950;145.008;2022-10-16T07:17:36;0;0;
54869;PMS5003;40756;-37.950;145.008;2022-10-16T07:20:06;0;0;
54869;PMS5003;40756;-37.950;145.008;2022-10-16T07:22:36;1;0;
54869;PMS5003;40756;-37.950;145.008;2022-10-16T07:25:06;0;0;
54869;PMS5003;40756;-37.950;145.008;2022-10-16T07:27:36;0;0;
54869;PMS5003;40756;-37.950;145.008;2022-10-16T07:30:06;2;2;
54869;PMS5003;40756;-37.950;145.008;2022-10-16T07:32:36;0;0;
54869;PMS5003;40756;-37.950;145.008;2022-10-16T07:35:06;0;0;
54869;PMS5003;40756;-37.950;145.008;2022-10-16T07:37:36;0;0;
54869;PMS5003;40756;-37.950;145.008;2022-10-16T07:40:06;0;0;
54869;PMS5003;40756;-37.950;145.008;2022-10-16T07:42:36;1;1;
54869;PMS5003;40756;-37.950;145.008;2022-10-16T07:45:06;0;0;
54869;PMS5003;40756;-37.950;145.008;2022-10-16T07:47:36;1;1;
54869;PMS5003;40756;-37.950;145.008;2022-10-16T07:50:06;0;0;
54869;PMS5003;40756;-37.950;145.008;2022-10-16T07:52:36;0;0;
54869;PMS5003;40756;-37.950;145.008;2022-10-16T07:55:06;1;0;
54869;PMS5003;40756;-37.950;145.008;2022-10-16T07:57:36;1;0;
54869;PMS5003;40756;-37.950;145.008;2022-10-16T08:00:06;1;1;
54869;PMS5003;40756;-37.950;145.008;2022-10-16T08:02:36;0;0;
54869;PMS5003;40756;-37.950;145.008;2022-10-16T08:05:06;0;0;
54869;PMS5003;40756;-37.950;145.008;2022-10-16T08:07:37;0;0;
54869;PMS5003;40756;-37.950;145.008;2022-10-16T08:10:09;0;0;
54869;PMS5003;40756;-37.950;145.008;2022-10-16T08:12:42;2;0;
54869;PMS5003;40756;-37.950;145.008;2022-10-16T08:15:12;0;0;
54869;PMS5003;40756;-37.950;145.008;2022-10-16T08:17:42;1;1;
54869;PMS5003;40756;-37.950;145.008;2022-10-16T08:20:11;1;1;
54869;PMS5003;40756;-37.950;145.008;2022-10-16T08:22:41;0;0;
54869;PMS5003;40756;-37.950;145.008;2022-10-16T08:25:11;1;0;
54869;PMS5003;40756;-37.950;145.008;2022-10-16T08:27:40;1;1;
54869;PMS5003;40756;-37.950;145.008;2022-10-16T08:30:10;1;0;
54869;PMS5003;40756;-37.950;145.008;2022-10-16T08:32:41;0;0;
54869;PMS5003;40756;-37.950;145.008;2022-10-16T08:35:11;1;0;
54869;PMS5003;40756;-37.950;145.008;2022-10-16T08:37:41;1;0;
54869;PMS5003;40756;-37.950;145.008;2022-10-16T08:40:15;1;1;
54869;PMS5003;40756;-37.950;145.008;2022-10-16T08:42:50;1;1;
54869;PMS5003;40756;-37.950;145.008;2022-10-16T08:45:34;1;0;
54869;PMS5003;40756;-37.950;145.008;2022-10-16T08:48:16;0;0;
54869;PMS5003;40756;-37.950;145.008;2022-10-16T08:50:53;0;0;
54869;PMS5003;40756;-37.950;145.008;2022-10-16T08:53:23;0;0;
54869;PMS5003;40756;-37.950;145.008;2022-10-16T08:55:55;0;0;
54869;PMS5003;40756;-37.950;145.008;2022-10-16T08:58:27;0;0;
54869;PMS5003;40756;-37.950;145.008;2022-10-16T09:00:58;1;1;
54869;PMS5003;40756;-37.950;145.008;2022-10-16T09:03:37;0;0;
54869;PMS5003;40756;-37.950;145.008;2022-10-16T09:06:23;3;3;
54869;PMS5003;40756;-37.950;145.008;2022-10-16T09:09:05;2;2;
54869;PMS5003;40756;-37.950;145.008;2022-10-16T09:11:48;1;1;
54869;PMS5003;40756;-37.950;145.008;2022-10-16T09:14:45;1;1;
54869;PMS5003;40756;-37.950;145.008;2022-10-16T09:17:32;2;1;
54869;PMS5003;40756;-37.950;145.008;2022-10-16T09:20:16;1;1;
54869;PMS5003;40756;-37.950;145.008;2022-10-16T09:22:55;1;1;
54869;PMS5003;40756;-37.950;145.008;2022-10-16T09:25:43;1;1;
54869;PMS5003;40756;-37.950;145.008;2022-10-16T09:28:14;1;0;
54869;PMS5003;40756;-37.950;145.008;2022-10-16T09:30:45;2;2;
54869;PMS5003;40756;-37.950;145.008;2022-10-16T09:33:15;3;3;
54869;PMS5003;40756;-37.950;145.008;2022-10-16T09:35:50;2;1;
54869;PMS5003;40756;-37.950;145.008;2022-10-16T09:38:22;2;1;
54869;PMS5003;40756;-37.950;145.008;2022-10-16T09:40:54;2;1;
54869;PMS5003;40756;-37.950;145.008;2022-10-16T09:43:25;3;3;
54869;PMS5003;40756;-37.950;145.008;2022-10-16T09:46:01;2;2;
54869;PMS5003;40756;-37.950;145.008;2022-10-16T09:48:36;3;2;
54869;PMS5003;40756;-37.950;145.008;2022-10-16T09:51:16;2;2;
54869;PMS5003;40756;-37.950;145.008;2022-10-16T09:53:53;4;3;
54869;PMS5003;40756;-37.950;145.008;2022-10-16T09:56:25;1;1;
54869;PMS5003;40756;-37.950;145.008;2022-10-16T09:58:57;2;2;
54869;PMS5003;40756;-37.950;145.008;2022-10-16T10:01:30;3;1;
54869;PMS5003;40756;-37.950;145.008;2022-10-16T10:04:04;2;2;
54869;PMS5003;40756;-37.950;145.008;2022-10-16T10:06:35;1;1;
54869;PMS5003;40756;-37.950;145.008;2022-10-16T10:09:19;2;2;
54869;PMS5003;40756;-37.950;145.008;2022-10-16T10:11:52;6;6;
54869;PMS5003;40756;-37.950;145.008;2022-10-16T10:14:25;10;9;
54869;PMS5003;40756;-37.950;145.008;2022-10-16T10:17:16;27;27;
54869;PMS5003;40756;-37.950;145.008;2022-10-16T10:19:50;25;24;
54869;PMS5003;40756;-37.950;145.008;2022-10-16T10:22:26;13;12;
54869;PMS5003;40756;-37.950;145.008;2022-10-16T10:25:01;1;1;
54869;PMS5003;40756;-37.950;145.008;2022-10-16T10:27:51;4;3;
54869;PMS5003;40756;-37.950;145.008;2022-10-16T10:30:33;1;1;
54869;PMS5003;40756;-37.950;145.008;2022-10-16T10:33:12;29;27;
54869;PMS5003;40756;-37.950;145.008;2022-10-16T10:35:49;4;3;
54869;PMS5003;40756;-37.950;145.008;2022-10-16T10:38:30;6;6;
54869;PMS5003;40756;-37.950;145.008;2022-10-16T10:41:11;8;8;
54869;PMS5003;40756;-37.950;145.008;2022-10-16T10:43:56;17;16;
54869;PMS5003;40756;-37.950;145.008;2022-10-16T10:46:38;2;2;
54869;PMS5003;40756;-37.950;145.008;2022-10-16T10:49:19;4;3;
54869;PMS5003;40756;-37.950;145.008;2022-10-16T10:52:05;0;0;
54869;PMS5003;40756;-37.950;145.008;2022-10-16T10:54:50;3;2;
54869;PMS5003;40756;-37.950;145.008;2022-10-16T10:57:28;3;2;
54869;PMS5003;40756;-37.950;145.008;2022-10-16T11:00:07;2;2;
54869;PMS5003;40756;-37.950;145.008;2022-10-16T11:02:48;2;1;
54869;PMS5003;40756;-37.950;145.008;2022-10-16T11:05:29;3;2;
54869;PMS5003;40756;-37.950;145.008;2022-10-16T11:08:12;3;3;
54869;PMS5003;40756;-37.950;145.008;2022-10-16T11:10:47;3;3;
54869;PMS5003;40756;-37.950;145.008;2022-10-16T11:13:23;1;1;
54869;PMS5003;40756;-37.950;145.008;2022-10-16T11:15:59;2;2;
54869;PMS5003;40756;-37.950;145.008;2022-10-16T11:18:39;2;2;
54869;PMS5003;40756;-37.950;145.008;2022-10-16T11:21:18;0;0;
54869;PMS5003;40756;-37.950;145.008;2022-10-16T11:23:51;2;2;
54869;PMS5003;40756;-37.950;145.008;2022-10-16T11:26:27;2;2;
54869;PMS5003;40756;-37.950;145.008;2022-10-16T11:29:02;2;2;
54869;PMS5003;40756;-37.950;145.008;2022-10-16T11:31:38;2;2;
54869;PMS5003;40756;-37.950;145.008;2022-10-16T11:34:13;3;3;
54869;PMS5003;40756;-37.950;145.008;2022-10-16T11:36:53;3;2;
54869;PMS5003;40756;-37.950;145.008;2022-10-16T11:39:29;2;2;
54869;PMS5003;40756;-37.950;145.008;2022-10-16T11:42:01;2;2;
54869;PMS5003;40756;-37.950;145.008;2022-10-16T11:44:42;3;2;
54869;PMS5003;40756;-37.950;145.008;2022-10-16T11:47:24;5;4;
54869;PMS5003;40756;-37.950;145.008;2022-10-16T11:50:02;3;2;
54869;PMS5003;40756;-37.950;145.008;2022-10-16T11:52:51;3;3;
54869;PMS5003;40756;-37.950;145.008;2022-10-16T11:55:30;2;2;
54869;PMS5003;40756;-37.950;145.008;2022-10-16T11:58:05;3;3;
54869;PMS5003;40756;-37.950;145.008;2022-10-16T12:00:42;4;3;
54869;PMS5003;40756;-37.950;145.008;2022-10-16T12:03:21;3;3;
54869;PMS5003;40756;-37.950;145.008;2022-10-16T12:06:01;4;4;
54869;PMS5003;40756;-37.950;145.008;2022-10-16T12:08:41;3;3;
54869;PMS5003;40756;-37.950;145.008;2022-10-16T12:11:24;2;2;
54869;PMS5003;40756;-37.950;145.008;2022-10-16T12:14:35;4;4;
54869;PMS5003;40756;-37.950;145.008;2022-10-16T12:17:24;4;4;
54869;PMS5003;40756;-37.950;145.008;2022-10-16T12:20:18;4;3;
54869;PMS5003;40756;-37.950;145.008;2022-10-16T12:22:53;5;4;
54869;PMS5003;40756;-37.950;145.008;2022-10-16T12:25:31;4;3;
54869;PMS5003;40756;-37.950;145.008;2022-10-16T12:28:03;5;3;
54869;PMS5003;40756;-37.950;145.008;2022-10-16T12:30:51;3;3;
54869;PMS5003;40756;-37.950;145.008;2022-10-16T12:33:23;8;4;
54869;PMS5003;40756;-37.950;145.008;2022-10-16T12:35:54;3;3;
54869;PMS5003;40756;-37.950;145.008;2022-10-16T12:38:26;2;1;
54869;PMS5003;40756;-37.950;145.008;2022-10-16T12:41:02;6;6;
54869;PMS5003;40756;-37.950;145.008;2022-10-16T12:43:37;4;3;
54869;PMS5003;40756;-37.950;145.008;2022-10-16T12:46:33;2;2;
54869;PMS5003;40756;-37.950;145.008;2022-10-16T12:49:14;3;3;
54869;PMS5003;40756;-37.950;145.008;2022-10-16T12:51:57;2;2;
54869;PMS5003;40756;-37.950;145.008;2022-10-16T12:54:28;3;3;
54869;PMS5003;40756;-37.950;145.008;2022-10-16T12:57:07;3;3;
54869;PMS5003;40756;-37.950;145.008;2022-10-16T12:59:50;4;3;
54869;PMS5003;40756;-37.950;145.008;2022-10-16T13:04:45;3;3;
54869;PMS5003;40756;-37.950;145.008;2022-10-16T13:07:34;4;3;
54869;PMS5003;40756;-37.950;145.008;2022-10-16T13:10:17;2;2;
54869;PMS5003;40756;-37.950;145.008;2022-10-16T13:13:00;3;3;
54869;PMS5003;40756;-37.950;145.008;2022-10-16T13:14:22;3;3;
54869;PMS5003;40756;-37.950;145.008;2022-10-16T13:17:02;2;2;
54869;PMS5003;40756;-37.950;145.008;2022-10-16T13:19:41;4;4;
54869;PMS5003;40756;-37.950;145.008;2022-10-16T13:22:21;4;4;
54869;PMS5003;40756;-37.950;145.008;2022-10-16T13:25:02;3;3;
54869;PMS5003;40756;-37.950;145.008;2022-10-16T13:27:46;4;4;
54869;PMS5003;40756;-37.950;145.008;2022-10-16T13:30:24;3;2;
54869;PMS5003;40756;-37.950;145.008;2022-10-16T13:32:56;3;3;
54869;PMS5003;40756;-37.950;145.008;2022-10-16T13:35:30;2;2;
54869;PMS5003;40756;-37.950;145.008;2022-10-16T13:38:18;3;3;
54869;PMS5003;40756;-37.950;145.008;2022-10-16T13:40:49;4;3;
54869;PMS5003;40756;-37.950;145.008;2022-10-16T13:43:22;4;4;
54869;PMS5003;40756;-37.950;145.008;2022-10-16T13:45:56;5;4;
54869;PMS5003;40756;-37.950;145.008;2022-10-16T13:48:28;6;5;
54869;PMS5003;40756;-37.950;145.008;2022-10-16T13:50:59;4;4;
54869;PMS5003;40756;-37.950;145.008;2022-10-16T13:53:32;5;5;
54869;PMS5003;40756;-37.950;145.008;2022-10-16T13:56:02;7;7;
54869;PMS5003;40756;-37.950;145.008;2022-10-16T13:58:34;7;7;
54869;PMS5003;40756;-37.950;145.008;2022-10-16T14:01:05;7;6;
54869;PMS5003;40756;-37.950;145.008;2022-10-16T14:03:44;6;6;
54869;PMS5003;40756;-37.950;145.008;2022-10-16T14:06:15;6;6;
54869;PMS5003;40756;-37.950;145.008;2022-10-16T14:08:48;7;7;
54869;PMS5003;40756;-37.950;145.008;2022-10-16T14:11:22;10;8;
54869;PMS5003;40756;-37.950;145.008;2022-10-16T14:13:54;8;8;
54869;PMS5003;40756;-37.950;145.008;2022-10-16T14:16:24;6;5;
54869;PMS5003;40756;-37.950;145.008;2022-10-16T14:18:57;7;6;
54869;PMS5003;40756;-37.950;145.008;2022-10-16T14:21:28;8;7;
54869;PMS5003;40756;-37.950;145.008;2022-10-16T14:23:58;8;8;
54869;PMS5003;40756;-37.950;145.008;2022-10-16T14:26:41;8;7;
54869;PMS5003;40756;-37.950;145.008;2022-10-16T14:29:12;7;7;
54869;PMS5003;40756;-37.950;145.008;2022-10-16T14:31:54;9;8;
54869;PMS5003;40756;-37.950;145.008;2022-10-16T14:34:27;7;6;
54869;PMS5003;40756;-37.950;145.008;2022-10-16T14:36:59;8;7;
54869;PMS5003;40756;-37.950;145.008;2022-10-16T14:39:33;7;6;
54869;PMS5003;40756;-37.950;145.008;2022-10-16T14:42:03;5;5;
54869;PMS5003;40756;-37.950;145.008;2022-10-16T14:44:41;5;5;
54869;PMS5003;40756;-37.950;145.008;2022-10-16T14:47:13;6;5;
54869;PMS5003;40756;-37.950;145.008;2022-10-16T14:49:44;6;5;
54869;PMS5003;40756;-37.950;145.008;2022-10-16T14:52:13;4;4;
54869;PMS5003;40756;-37.950;145.008;2022-10-16T14:54:46;6;6;
54869;PMS5003;40756;-37.950;145.008;2022-10-16T14:57:17;6;5;
54869;PMS5003;40756;-37.950;145.008;2022-10-16T14:59:49;6;6;
54869;PMS5003;40756;-37.950;145.008;2022-10-16T15:02:23;4;4;
54869;PMS5003;40756;-37.950;145.008;2022-10-16T15:04:56;5;5;
54869;PMS5003;40756;-37.950;145.008;2022-10-16T15:07:30;5;5;
54869;PMS5003;40756;-37.950;145.008;2022-10-16T15:09:59;4;4;
54869;PMS5003;40756;-37.950;145.008;2022-10-16T15:12:28;7;6;
54869;PMS5003;40756;-37.950;145.008;2022-10-16T15:14:58;11;11;
54869;PMS5003;40756;-37.950;145.008;2022-10-16T15:17:27;18;17;
54869;PMS5003;40756;-37.950;145.008;2022-10-16T15:19:56;16;16;
54869;PMS5003;40756;-37.950;145.008;2022-10-16T15:22:25;22;21;
54869;PMS5003;40756;-37.950;145.008;2022-10-16T15:24:54;18;16;
54869;PMS5003;40756;-37.950;145.008;2022-10-16T15:27:23;11;11;
54869;PMS5003;40756;-37.950;145.008;2022-10-16T15:29:53;17;17;
54869;PMS5003;40756;-37.950;145.008;2022-10-16T15:32:22;11;10;
54869;PMS5003;40756;-37.950;145.008;2022-10-16T15:34:52;19;18;
54869;PMS5003;40756;-37.950;145.008;2022-10-16T15:37:21;27;26;
54869;PMS5003;40756;-37.950;145.008;2022-10-16T15:39:50;24;24;
54869;PMS5003;40756;-37.950;145.008;2022-10-16T15:42:20;8;8;
54869;PMS5003;40756;-37.950;145.008;2022-10-16T15:44:49;9;8;
54869;PMS5003;40756;-37.950;145.008;2022-10-16T15:47:18;7;7;
54869;PMS5003;40756;-37.950;145.008;2022-10-16T15:49:48;5;5;
54869;PMS5003;40756;-37.950;145.008;2022-10-16T15:52:17;7;6;
54869;PMS5003;40756;-37.950;145.008;2022-10-16T15:54:46;8;7;
54869;PMS5003;40756;-37.950;145.008;2022-10-16T15:57:15;6;6;
54869;PMS5003;40756;-37.950;145.008;2022-10-16T15:59:44;8;7;
54869;PMS5003;40756;-37.950;145.008;2022-10-16T16:03:10;7;7;
54869;PMS5003;40756;-37.950;145.008;2022-10-16T16:05:40;7;6;
54869;PMS5003;40756;-37.950;145.008;2022-10-16T16:08:09;6;6;
54869;PMS5003;40756;-37.950;145.008;2022-10-16T16:10:39;10;10;
54869;PMS5003;40756;-37.950;145.008;2022-10-16T16:13:08;9;8;
54869;PMS5003;40756;-37.950;145.008;2022-10-16T16:15:39;6;6;
54869;PMS5003;40756;-37.950;145.008;2022-10-16T16:18:09;8;8;
54869;PMS5003;40756;-37.950;145.008;2022-10-16T16:20:38;6;6;
54869;PMS5003;40756;-37.950;145.008;2022-10-16T16:23:07;8;8;
54869;PMS5003;40756;-37.950;145.008;2022-10-16T16:25:36;10;9;
54869;PMS5003;40756;-37.950;145.008;2022-10-16T16:28:05;8;8;
54869;PMS5003;40756;-37.950;145.008;2022-10-16T16:30:34;12;8;
54869;PMS5003;40756;-37.950;145.008;2022-10-16T16:33:04;8;8;
54869;PMS5003;40756;-37.950;145.008;2022-10-16T16:35:33;8;8;
54869;PMS5003;40756;-37.950;145.008;2022-10-16T16:38:02;5;5;
54869;PMS5003;40756;-37.950;145.008;2022-10-16T16:40:32;8;7;